createdAt,value
2019-05-29T00:00:47.787Z,0.00
2019-05-29T00:01:47.731Z,0.00
2019-05-29T00:02:47.721Z,0.00
2019-05-29T00:03:47.700Z,0.00
2019-05-29T00:04:47.721Z,0.00
2019-05-29T00:05:47.668Z,0.00
2019-05-29T00:06:47.671Z,0.00
2019-05-29T00:07:47.671Z,0.00
2019-05-29T00:08:47.633Z,0.00
2019-05-29T00:09:47.688Z,0.00
2019-05-29T00:10:47.604Z,0.00
2019-05-29T00:11:47.607Z,0.00
2019-05-29T00:12:47.602Z,0.00
2019-05-29T00:13:47.583Z,0.00
2019-05-29T00:14:47.566Z,0.00
2019-05-29T00:15:47.597Z,0.00
2019-05-29T00:16:47.539Z,0.00
2019-05-29T00:17:47.541Z,0.00
2019-05-29T00:18:47.541Z,0.00
2019-05-29T00:19:47.521Z,0.00
2019-05-29T00:20:47.563Z,0.00
2019-05-29T00:21:47.479Z,0.00
2019-05-29T00:22:47.521Z,0.00
2019-05-29T00:23:47.478Z,0.00
2019-05-29T00:24:47.483Z,0.00
2019-05-29T00:25:47.439Z,0.00
2019-05-29T00:26:47.595Z,0.00
2019-05-29T00:27:47.418Z,0.00
2019-05-29T00:28:47.453Z,0.00
2019-05-29T00:29:47.411Z,0.00
2019-05-29T00:30:47.416Z,0.00
2019-05-29T00:31:47.427Z,0.00
2019-05-29T00:32:47.374Z,0.00
2019-05-29T00:33:47.353Z,0.00
2019-05-29T00:34:47.344Z,0.00
2019-05-29T00:35:47.351Z,0.00
2019-05-29T00:36:47.358Z,0.00
2019-05-29T00:37:47.400Z,0.00
2019-05-29T00:38:47.313Z,0.00
2019-05-29T00:39:47.293Z,0.00
2019-05-29T00:40:47.282Z,0.00
2019-05-29T00:41:47.275Z,0.00
2019-05-29T00:42:47.334Z,0.00
2019-05-29T00:43:47.249Z,0.00
2019-05-29T00:44:47.255Z,0.00
2019-05-29T00:45:47.267Z,0.00
2019-05-29T00:46:47.230Z,0.00
2019-05-29T00:47:47.214Z,0.00
2019-05-29T00:48:47.247Z,0.00
2019-05-29T00:49:47.187Z,0.00
2019-05-29T00:50:47.185Z,0.00
2019-05-29T00:51:47.158Z,0.00
2019-05-29T00:52:47.171Z,0.00
2019-05-29T00:53:47.624Z,0.00
2019-05-29T00:54:47.121Z,0.00
2019-05-29T00:55:47.127Z,0.00
2019-05-29T00:56:47.121Z,0.00
2019-05-29T00:57:47.125Z,0.00
2019-05-29T00:58:47.100Z,0.00
2019-05-29T00:59:47.113Z,0.00
2019-05-29T01:00:47.061Z,0.00
2019-05-29T01:01:47.065Z,0.00
2019-05-29T01:02:47.385Z,0.00
2019-05-29T01:03:47.067Z,0.00
2019-05-29T01:04:47.082Z,0.00
2019-05-29T01:05:47.031Z,0.00
2019-05-29T01:06:46.992Z,0.00
2019-05-29T01:07:47.001Z,0.00
2019-05-29T01:08:47.004Z,0.00
2019-05-29T01:09:47.015Z,0.00
2019-05-29T01:10:46.959Z,0.00
2019-05-29T01:11:46.947Z,0.00
2019-05-29T01:12:46.930Z,0.00
2019-05-29T01:13:46.928Z,0.00
2019-05-29T01:14:50.171Z,0.00
2019-05-29T01:15:46.935Z,0.00
2019-05-29T01:16:46.903Z,0.00
2019-05-29T01:17:46.906Z,0.00
2019-05-29T01:18:46.872Z,0.00
2019-05-29T01:19:46.867Z,0.00
2019-05-29T01:20:46.881Z,0.00
2019-05-29T01:21:46.850Z,0.00
2019-05-29T01:22:46.848Z,0.00
2019-05-29T01:23:46.809Z,0.00
2019-05-29T01:24:46.800Z,0.00
2019-05-29T01:25:46.805Z,0.00
2019-05-29T01:26:46.813Z,0.00
2019-05-29T01:27:46.768Z,0.00
2019-05-29T01:28:46.756Z,0.00
2019-05-29T01:29:46.756Z,0.00
2019-05-29T01:30:46.736Z,0.00
2019-05-29T01:31:46.796Z,0.00
2019-05-29T01:32:46.738Z,0.00
2019-05-29T01:33:46.706Z,0.00
2019-05-29T01:34:46.719Z,0.00
2019-05-29T01:35:46.673Z,0.00
2019-05-29T01:36:46.675Z,0.00
2019-05-29T01:37:46.741Z,0.00
2019-05-29T01:38:46.649Z,0.00
2019-05-29T01:39:46.659Z,0.00
2019-05-29T01:40:46.627Z,0.00
2019-05-29T01:41:46.601Z,0.00
2019-05-29T01:42:49.772Z,0.00
2019-05-29T01:43:46.607Z,0.00
2019-05-29T01:44:46.582Z,0.00
2019-05-29T01:45:46.583Z,0.00
2019-05-29T01:46:46.559Z,0.00
2019-05-29T01:47:46.606Z,0.00
2019-05-29T01:48:46.545Z,0.00
2019-05-29T01:49:46.518Z,0.00
2019-05-29T01:50:46.509Z,0.00
2019-05-29T01:51:46.601Z,0.00
2019-05-29T01:52:46.489Z,0.00
2019-05-29T01:53:46.531Z,0.00
2019-05-29T01:54:46.486Z,0.00
2019-05-29T01:55:46.457Z,0.00
2019-05-29T01:56:46.493Z,0.00
2019-05-29T01:57:46.465Z,0.00
2019-05-29T01:58:46.505Z,0.00
2019-05-29T01:59:46.424Z,0.00
2019-05-29T02:00:46.411Z,0.00
2019-05-29T02:01:46.392Z,0.00
2019-05-29T02:02:46.388Z,0.00
2019-05-29T02:03:46.373Z,0.00
2019-05-29T02:04:46.380Z,0.00
2019-05-29T02:05:46.357Z,0.00
2019-05-29T02:06:46.326Z,0.00
2019-05-29T02:07:46.332Z,0.00
2019-05-29T02:08:46.304Z,0.00
2019-05-29T02:09:46.347Z,0.00
2019-05-29T02:10:46.285Z,0.00
2019-05-29T02:11:46.288Z,0.00
2019-05-29T02:12:46.263Z,0.00
2019-05-29T02:13:46.263Z,0.00
2019-05-29T02:14:46.286Z,0.00
2019-05-29T02:15:46.246Z,0.00
2019-05-29T02:16:46.254Z,0.00
2019-05-29T02:17:46.229Z,0.00
2019-05-29T02:18:46.201Z,0.00
2019-05-29T02:19:46.201Z,0.00
2019-05-29T02:20:46.244Z,0.00
2019-05-29T02:21:46.166Z,0.00
2019-05-29T02:22:47.044Z,0.00
2019-05-29T02:23:46.180Z,0.00
2019-05-29T02:24:46.154Z,0.00
2019-05-29T02:25:46.184Z,0.00
2019-05-29T02:26:46.111Z,0.00
2019-05-29T02:27:46.104Z,0.00
2019-05-29T02:28:46.092Z,0.00
2019-05-29T02:29:46.097Z,0.00
2019-05-29T02:30:46.110Z,0.00
2019-05-29T02:31:46.084Z,0.00
2019-05-29T02:32:46.055Z,0.00
2019-05-29T02:33:46.034Z,0.00
2019-05-29T02:34:46.039Z,0.00
2019-05-29T02:35:46.036Z,0.00
2019-05-29T02:36:46.058Z,0.00
2019-05-29T02:37:46.010Z,0.00
2019-05-29T02:38:45.981Z,0.00
2019-05-29T02:39:45.962Z,0.00
2019-05-29T02:40:45.971Z,0.00
2019-05-29T02:41:45.985Z,0.00
2019-05-29T02:42:45.966Z,0.00
2019-05-29T02:43:45.956Z,0.00
2019-05-29T02:44:45.924Z,0.00
2019-05-29T02:45:54.255Z,0.00
2019-05-29T02:46:45.908Z,0.00
2019-05-29T02:47:45.925Z,0.00
2019-05-29T02:48:45.862Z,0.00
2019-05-29T02:49:45.859Z,0.00
2019-05-29T02:50:45.874Z,0.00
2019-05-29T02:51:45.843Z,0.00
2019-05-29T02:52:45.845Z,0.00
2019-05-29T02:53:45.858Z,0.00
2019-05-29T02:54:45.802Z,0.00
2019-05-29T02:55:45.788Z,0.00
2019-05-29T02:56:45.770Z,0.00
2019-05-29T02:57:45.800Z,0.00
2019-05-29T02:58:45.821Z,0.00
2019-05-29T02:59:45.759Z,0.00
2019-05-29T03:00:45.778Z,0.00
2019-05-29T03:01:45.718Z,4.00
2019-05-29T03:02:45.736Z,4.00
2019-05-29T03:03:45.722Z,0.00
2019-05-29T03:04:45.747Z,4.00
2019-05-29T03:05:45.673Z,0.00
2019-05-29T03:06:45.661Z,0.00
2019-05-29T03:07:45.666Z,0.00
2019-05-29T03:08:45.668Z,0.00
2019-05-29T03:09:45.678Z,0.00
2019-05-29T03:10:45.640Z,4.00
2019-05-29T03:11:45.611Z,4.00
2019-05-29T03:12:45.609Z,4.00
2019-05-29T03:13:45.596Z,4.00
2019-05-29T03:14:45.608Z,0.00
2019-05-29T03:15:45.617Z,4.00
2019-05-29T03:16:45.581Z,4.00
2019-05-29T03:17:45.562Z,4.00
2019-05-29T03:18:45.548Z,4.00
2019-05-29T03:19:45.537Z,4.00
2019-05-29T03:20:45.552Z,8.00
2019-05-29T03:21:45.523Z,4.00
2019-05-29T03:22:45.518Z,8.00
2019-05-29T03:23:45.486Z,8.00
2019-05-29T03:24:45.467Z,8.00
2019-05-29T03:25:45.474Z,8.00
2019-05-29T03:26:45.488Z,8.00
2019-05-29T03:27:45.453Z,12.00
2019-05-29T03:28:45.419Z,12.00
2019-05-29T03:29:45.411Z,12.00
2019-05-29T03:30:46.530Z,12.00
2019-05-29T03:31:47.832Z,12.00
2019-05-29T03:32:48.002Z,12.00
2019-05-29T03:33:49.699Z,12.00
2019-05-29T03:34:47.635Z,16.00
2019-05-29T03:35:48.097Z,16.00
2019-05-29T03:36:48.015Z,20.00
2019-05-29T03:37:45.374Z,16.00
2019-05-29T03:38:45.350Z,20.00
2019-05-29T03:39:45.327Z,20.00
2019-05-29T03:40:45.287Z,20.00
2019-05-29T03:41:45.282Z,24.00
2019-05-29T03:42:46.071Z,24.00
2019-05-29T03:43:45.264Z,24.00
2019-05-29T03:44:45.271Z,28.00
2019-05-29T03:45:45.271Z,32.00
2019-05-29T03:46:46.276Z,28.00
2019-05-29T03:47:45.229Z,32.00
2019-05-29T03:48:45.238Z,32.00
2019-05-29T03:49:45.207Z,32.00
2019-05-29T03:50:45.213Z,36.00
2019-05-29T03:51:45.167Z,36.00
2019-05-29T03:52:45.169Z,36.00
2019-05-29T03:53:45.229Z,36.00
2019-05-29T03:54:45.168Z,40.00
2019-05-29T03:55:45.142Z,40.00
2019-05-29T03:56:45.137Z,44.00
2019-05-29T03:57:45.152Z,44.00
2019-05-29T03:58:45.088Z,48.00
2019-05-29T03:59:45.159Z,48.00
2019-05-29T04:00:47.609Z,48.00
2019-05-29T04:01:45.063Z,48.00
2019-05-29T04:02:45.073Z,48.00
2019-05-29T04:03:45.041Z,48.00
2019-05-29T04:04:45.055Z,48.00
2019-05-29T04:05:45.030Z,48.00
2019-05-29T04:06:47.432Z,48.00
2019-05-29T04:07:45.015Z,56.00
2019-05-29T04:08:45.020Z,56.00
2019-05-29T04:09:45.034Z,60.00
2019-05-29T04:10:44.966Z,60.00
2019-05-29T04:11:44.972Z,64.00
2019-05-29T04:12:44.951Z,68.00
2019-05-29T04:13:44.937Z,72.00
2019-05-29T04:14:44.959Z,80.00
2019-05-29T04:15:44.958Z,84.00
2019-05-29T04:16:59.022Z,88.00
2019-05-29T04:17:45.933Z,88.00
2019-05-29T04:18:44.882Z,92.00
2019-05-29T04:19:44.874Z,100.00
2019-05-29T04:20:44.893Z,100.00
2019-05-29T04:21:44.855Z,104.00
2019-05-29T04:22:44.839Z,104.00
2019-05-29T04:23:44.844Z,108.00
2019-05-29T04:24:44.821Z,112.00
2019-05-29T04:25:44.876Z,116.00
2019-05-29T04:26:44.779Z,120.00
2019-05-29T04:27:44.768Z,124.00
2019-05-29T04:28:44.785Z,132.00
2019-05-29T04:29:44.797Z,136.00
2019-05-29T04:30:44.753Z,144.00
2019-05-29T04:31:44.763Z,152.00
2019-05-29T04:32:44.714Z,160.00
2019-05-29T04:33:44.719Z,168.00
2019-05-29T04:34:44.723Z,176.00
2019-05-29T04:35:44.692Z,184.00
2019-05-29T04:36:44.730Z,184.00
2019-05-29T04:37:44.701Z,188.00
2019-05-29T04:38:44.650Z,188.00
2019-05-29T04:39:44.661Z,180.00
2019-05-29T04:40:44.635Z,176.00
2019-05-29T04:41:44.676Z,172.00
2019-05-29T04:42:44.626Z,168.00
2019-05-29T04:43:44.609Z,164.00
2019-05-29T04:44:44.591Z,164.00
2019-05-29T04:45:44.591Z,164.00
2019-05-29T04:46:44.633Z,164.00
2019-05-29T04:47:44.593Z,160.00
2019-05-29T04:48:44.576Z,160.00
2019-05-29T04:49:44.549Z,156.00
2019-05-29T04:50:44.530Z,156.00
2019-05-29T04:51:44.529Z,152.00
2019-05-29T04:52:44.554Z,148.00
2019-05-29T04:53:44.501Z,148.00
2019-05-29T04:54:44.492Z,148.00
2019-05-29T04:55:44.480Z,152.00
2019-05-29T04:56:44.460Z,152.00
2019-05-29T04:57:44.491Z,152.00
2019-05-29T04:58:44.445Z,164.00
2019-05-29T04:59:44.433Z,168.00
2019-05-29T05:00:58.187Z,176.00
2019-05-29T05:01:44.421Z,180.00
2019-05-29T05:02:44.400Z,188.00
2019-05-29T05:03:44.433Z,196.00
2019-05-29T05:04:44.377Z,204.00
2019-05-29T05:05:44.385Z,212.00
2019-05-29T05:06:44.349Z,216.00
2019-05-29T05:07:44.357Z,224.00
2019-05-29T05:08:44.339Z,228.00
2019-05-29T05:09:44.394Z,228.00
2019-05-29T05:10:44.314Z,232.00
2019-05-29T05:11:44.312Z,232.00
2019-05-29T05:12:44.310Z,236.00
2019-05-29T05:13:44.269Z,236.00
2019-05-29T05:14:44.303Z,240.00
2019-05-29T05:15:44.266Z,240.00
2019-05-29T05:16:44.240Z,248.00
2019-05-29T05:17:44.224Z,244.00
2019-05-29T05:18:44.227Z,244.00
2019-05-29T05:19:44.234Z,244.00
2019-05-29T05:20:44.236Z,236.00
2019-05-29T05:21:44.186Z,240.00
2019-05-29T05:22:44.190Z,240.00
2019-05-29T05:23:44.158Z,228.00
2019-05-29T05:24:44.272Z,216.00
2019-05-29T05:25:44.181Z,204.00
2019-05-29T05:26:44.130Z,200.00
2019-05-29T05:27:44.123Z,208.00
2019-05-29T05:28:45.921Z,220.00
2019-05-29T05:29:44.084Z,220.00
2019-05-29T05:30:44.146Z,220.00
2019-05-29T05:31:44.058Z,228.00
2019-05-29T05:32:44.090Z,240.00
2019-05-29T05:33:44.067Z,244.00
2019-05-29T05:34:44.045Z,240.00
2019-05-29T05:35:44.038Z,232.00
2019-05-29T05:36:44.077Z,224.00
2019-05-29T05:37:43.995Z,212.00
2019-05-29T05:38:43.997Z,204.00
2019-05-29T05:39:44.003Z,204.00
2019-05-29T05:40:43.961Z,204.00
2019-05-29T05:41:43.982Z,208.00
2019-05-29T05:42:43.995Z,216.00
2019-05-29T05:43:43.930Z,224.00
2019-05-29T05:44:43.932Z,232.00
2019-05-29T05:45:43.905Z,240.00
2019-05-29T05:46:43.947Z,256.00
2019-05-29T05:47:56.441Z,272.00
2019-05-29T05:48:44.885Z,280.00
2019-05-29T05:49:43.865Z,280.00
2019-05-29T05:50:43.870Z,268.00
2019-05-29T05:51:44.749Z,260.00
2019-05-29T05:52:43.850Z,256.00
2019-05-29T05:53:43.847Z,252.00
2019-05-29T05:54:43.852Z,252.00
2019-05-29T05:55:43.807Z,264.00
2019-05-29T05:56:43.811Z,276.00
2019-05-29T05:57:43.818Z,296.00
2019-05-29T05:58:43.842Z,320.00
2019-05-29T05:59:43.761Z,348.00
2019-05-29T06:00:43.745Z,380.00
2019-05-29T06:01:43.742Z,416.00
2019-05-29T06:02:43.749Z,440.00
2019-05-29T06:03:43.762Z,460.00
2019-05-29T06:04:43.711Z,472.00
2019-05-29T06:05:43.742Z,492.00
2019-05-29T06:06:43.676Z,516.00
2019-05-29T06:07:43.681Z,532.00
2019-05-29T06:08:43.703Z,532.00
2019-05-29T06:09:43.658Z,528.00
2019-05-29T06:10:43.663Z,520.00
2019-05-29T06:11:43.630Z,528.00
2019-05-29T06:12:43.614Z,540.00
2019-05-29T06:13:43.618Z,552.00
2019-05-29T06:14:43.623Z,552.00
2019-05-29T06:15:43.586Z,560.00
2019-05-29T06:16:43.564Z,576.00
2019-05-29T06:18:00.537Z,576.00
2019-05-29T06:18:44.576Z,564.00
2019-05-29T06:19:43.563Z,568.00
2019-05-29T06:20:43.580Z,572.00
2019-05-29T06:21:43.527Z,572.00
2019-05-29T06:22:43.742Z,580.00
2019-05-29T06:23:43.872Z,580.00
2019-05-29T06:24:43.758Z,584.00
2019-05-29T06:25:43.915Z,580.00
2019-05-29T06:26:43.467Z,572.00
2019-05-29T06:27:43.486Z,592.00
2019-05-29T06:28:43.634Z,564.00
2019-05-29T06:29:43.627Z,556.00
2019-05-29T06:30:45.065Z,540.00
2019-05-29T06:31:43.506Z,500.00
2019-05-29T06:32:43.679Z,456.00
2019-05-29T06:33:43.908Z,424.00
2019-05-29T06:34:43.805Z,416.00
2019-05-29T06:35:43.753Z,424.00
2019-05-29T06:36:43.915Z,452.00
2019-05-29T06:37:43.746Z,456.00
2019-05-29T06:38:44.403Z,488.00
2019-05-29T06:39:43.924Z,548.00
2019-05-29T06:40:44.031Z,572.00
2019-05-29T06:41:44.324Z,580.00
2019-05-29T06:42:43.922Z,564.00
2019-05-29T06:43:44.428Z,552.00
2019-05-29T06:44:44.854Z,564.00
2019-05-29T06:45:44.098Z,572.00
2019-05-29T06:46:45.300Z,600.00
2019-05-29T06:47:44.599Z,624.00
2019-05-29T06:48:56.318Z,640.00
2019-05-29T06:49:44.455Z,656.00
2019-05-29T06:50:43.496Z,656.00
2019-05-29T06:51:43.506Z,588.00
2019-05-29T06:52:43.596Z,548.00
2019-05-29T06:53:43.956Z,528.00
2019-05-29T06:54:44.147Z,520.00
2019-05-29T06:55:44.016Z,516.00
2019-05-29T06:56:43.817Z,488.00
2019-05-29T06:57:44.466Z,472.00
2019-05-29T06:58:44.340Z,456.00
2019-05-29T06:59:44.600Z,440.00
2019-05-29T07:00:43.134Z,432.00
2019-05-29T07:01:43.551Z,444.00
2019-05-29T07:02:43.089Z,456.00
2019-05-29T07:03:43.956Z,460.00
2019-05-29T07:04:43.047Z,428.00
2019-05-29T07:05:46.533Z,420.00
2019-05-29T07:06:44.817Z,436.00
2019-05-29T07:07:44.389Z,452.00
2019-05-29T07:08:46.471Z,460.00
2019-05-29T07:09:43.110Z,452.00
2019-05-29T07:10:44.484Z,448.00
2019-05-29T07:11:43.866Z,452.00
2019-05-29T07:12:44.103Z,464.00
2019-05-29T07:13:45.963Z,484.00
2019-05-29T07:14:42.941Z,504.00
2019-05-29T07:15:43.153Z,512.00
2019-05-29T07:16:49.571Z,504.00
2019-05-29T07:17:42.917Z,476.00
2019-05-29T07:19:20.453Z,464.00
2019-05-29T07:19:54.344Z,464.00
2019-05-29T07:20:42.887Z,464.00
2019-05-29T07:21:42.919Z,468.00
2019-05-29T07:22:43.091Z,504.00
2019-05-29T07:23:45.184Z,572.00
2019-05-29T07:24:43.497Z,640.00
2019-05-29T07:25:43.020Z,676.00
2019-05-29T07:26:43.662Z,692.00
2019-05-29T07:27:42.925Z,692.00
2019-05-29T07:29:05.698Z,696.00
2019-05-29T07:29:43.554Z,744.00
2019-05-29T07:30:48.038Z,716.00
2019-05-29T07:31:43.745Z,684.00
2019-05-29T07:32:49.004Z,660.00
2019-05-29T07:33:43.288Z,620.00
2019-05-29T07:34:57.919Z,572.00
2019-05-29T07:35:43.745Z,544.00
2019-05-29T07:36:44.029Z,572.00
2019-05-29T07:37:43.845Z,572.00
2019-05-29T07:38:45.931Z,572.00
2019-05-29T07:39:43.669Z,628.00
2019-05-29T07:40:44.934Z,648.00
2019-05-29T07:41:43.661Z,664.00
2019-05-29T07:42:49.615Z,784.00
2019-05-29T07:43:43.868Z,668.00
2019-05-29T07:44:43.989Z,684.00
2019-05-29T07:45:43.957Z,668.00
2019-05-29T07:46:42.581Z,676.00
2019-05-29T07:47:42.945Z,604.00
2019-05-29T07:48:42.745Z,568.00
2019-05-29T07:49:44.794Z,600.00
2019-05-29T07:50:42.605Z,520.00
2019-05-29T07:51:43.706Z,532.00
2019-05-29T07:52:43.373Z,544.00
2019-05-29T07:53:42.521Z,580.00
2019-05-29T07:54:43.586Z,616.00
2019-05-29T07:55:42.684Z,704.00
2019-05-29T07:56:42.545Z,692.00
2019-05-29T07:57:42.839Z,756.00
2019-05-29T07:58:48.996Z,744.00
2019-05-29T07:59:44.637Z,740.00
2019-05-29T08:01:06.879Z,780.00
2019-05-29T08:01:42.794Z,772.00
2019-05-29T08:02:43.351Z,740.00
2019-05-29T08:03:43.472Z,732.00
2019-05-29T08:04:43.054Z,712.00
2019-05-29T08:05:46.213Z,772.00
2019-05-29T08:06:48.317Z,804.00
2019-05-29T08:07:43.389Z,804.00
2019-05-29T08:08:43.206Z,808.00
2019-05-29T08:09:43.536Z,784.00
2019-05-29T08:10:43.369Z,744.00
2019-05-29T08:11:43.461Z,732.00
2019-05-29T08:12:50.235Z,748.00
2019-05-29T08:13:43.345Z,704.00
2019-05-29T08:14:43.479Z,736.00
2019-05-29T08:15:54.091Z,764.00
2019-05-29T08:16:42.332Z,684.00
2019-05-29T08:17:42.241Z,708.00
2019-05-29T08:18:46.214Z,732.00
2019-05-29T08:20:00.291Z,732.00
2019-05-29T08:20:42.243Z,708.00
2019-05-29T08:21:42.673Z,740.00
2019-05-29T08:22:42.478Z,816.00
2019-05-29T08:23:42.302Z,752.00
2019-05-29T08:24:42.676Z,792.00
2019-05-29T08:25:43.374Z,760.00
2019-05-29T08:26:42.910Z,732.00
2019-05-29T08:27:42.608Z,852.00
2019-05-29T08:28:42.795Z,852.00
2019-05-29T08:29:42.605Z,756.00
2019-05-29T08:30:47.380Z,572.00
2019-05-29T08:31:42.769Z,584.00
2019-05-29T08:32:43.519Z,720.00
2019-05-29T08:33:42.828Z,780.00
2019-05-29T08:34:43.024Z,716.00
2019-05-29T08:35:43.036Z,864.00
2019-05-29T08:36:55.824Z,904.00
2019-05-29T08:37:42.855Z,772.00
2019-05-29T08:38:43.782Z,588.00
2019-05-29T08:39:43.171Z,556.00
2019-05-29T08:40:43.001Z,444.00
2019-05-29T08:41:53.564Z,444.00
2019-05-29T08:42:43.228Z,712.00
2019-05-29T08:43:42.497Z,728.00
2019-05-29T08:44:43.275Z,728.00
2019-05-29T08:45:41.938Z,732.00
2019-05-29T08:46:57.629Z,736.00
2019-05-29T08:47:41.910Z,736.00
2019-05-29T08:48:41.980Z,740.00
2019-05-29T08:49:41.886Z,724.00
2019-05-29T08:50:41.888Z,716.00
2019-05-29T08:51:41.874Z,716.00
2019-05-29T08:52:41.889Z,684.00
2019-05-29T08:53:42.534Z,692.00
2019-05-29T08:54:42.102Z,724.00
2019-05-29T08:55:42.088Z,752.00
2019-05-29T08:56:42.269Z,780.00
2019-05-29T08:57:42.549Z,816.00
2019-05-29T08:58:42.923Z,756.00
2019-05-29T08:59:42.111Z,772.00
2019-05-29T09:00:46.567Z,592.00
2019-05-29T09:01:43.263Z,384.00
2019-05-29T09:02:42.556Z,380.00
2019-05-29T09:03:42.761Z,740.00
2019-05-29T09:04:43.012Z,720.00
2019-05-29T09:05:42.445Z,680.00
2019-05-29T09:06:43.020Z,700.00
2019-05-29T09:07:43.323Z,756.00
2019-05-29T09:08:43.742Z,764.00
2019-05-29T09:09:42.897Z,756.00
2019-05-29T09:10:43.127Z,756.00
2019-05-29T09:11:42.974Z,724.00
2019-05-29T09:12:41.642Z,740.00
2019-05-29T09:13:41.617Z,744.00
2019-05-29T09:14:41.624Z,744.00
2019-05-29T09:15:41.598Z,716.00
2019-05-29T09:16:41.666Z,716.00
2019-05-29T09:17:41.613Z,720.00
2019-05-29T09:18:41.585Z,708.00
2019-05-29T09:19:41.582Z,704.00
2019-05-29T09:21:01.209Z,696.00
2019-05-29T09:21:41.634Z,708.00
2019-05-29T09:22:41.541Z,732.00
2019-05-29T09:23:41.538Z,724.00
2019-05-29T09:24:41.493Z,732.00
2019-05-29T09:25:41.488Z,740.00
2019-05-29T09:26:41.521Z,748.00
2019-05-29T09:27:41.466Z,756.00
2019-05-29T09:28:41.474Z,752.00
2019-05-29T09:29:41.474Z,748.00
2019-05-29T09:30:41.427Z,756.00
2019-05-29T09:31:41.431Z,760.00
2019-05-29T09:32:49.981Z,756.00
2019-05-29T09:33:42.419Z,756.00
2019-05-29T09:34:41.420Z,756.00
2019-05-29T09:35:41.369Z,756.00
2019-05-29T09:36:41.410Z,752.00
2019-05-29T09:37:41.852Z,756.00
2019-05-29T09:38:41.420Z,752.00
2019-05-29T09:39:41.353Z,744.00
2019-05-29T09:40:41.359Z,744.00
2019-05-29T09:41:41.310Z,744.00
2019-05-29T09:42:42.293Z,700.00
2019-05-29T09:43:57.592Z,744.00
2019-05-29T09:44:42.296Z,752.00
2019-05-29T09:45:41.288Z,752.00
2019-05-29T09:46:41.286Z,744.00
2019-05-29T09:47:41.305Z,740.00
2019-05-29T09:48:49.596Z,740.00
2019-05-29T09:49:41.245Z,744.00
2019-05-29T09:50:50.246Z,744.00
2019-05-29T09:51:41.205Z,748.00
2019-05-29T09:52:41.193Z,752.00
2019-05-29T09:53:41.345Z,752.00
2019-05-29T09:54:41.169Z,764.00
2019-05-29T09:55:41.152Z,712.00
2019-05-29T09:56:41.156Z,676.00
2019-05-29T09:57:41.153Z,688.00
2019-05-29T09:58:41.171Z,720.00
2019-05-29T09:59:41.109Z,724.00
2019-05-29T10:00:41.118Z,728.00
2019-05-29T10:01:41.150Z,740.00
2019-05-29T10:02:41.142Z,760.00
2019-05-29T10:03:41.092Z,756.00
2019-05-29T10:04:41.056Z,760.00
2019-05-29T10:05:41.107Z,788.00
2019-05-29T10:06:41.062Z,776.00
2019-05-29T10:07:41.060Z,764.00
2019-05-29T10:08:41.023Z,772.00
2019-05-29T10:09:40.995Z,776.00
2019-05-29T10:10:41.005Z,784.00
2019-05-29T10:11:40.980Z,740.00
2019-05-29T10:12:41.008Z,756.00
2019-05-29T10:13:40.975Z,700.00
2019-05-29T10:14:40.970Z,740.00
2019-05-29T10:15:40.925Z,756.00
2019-05-29T10:16:40.915Z,796.00
2019-05-29T10:17:40.995Z,824.00
2019-05-29T10:18:40.927Z,848.00
2019-05-29T10:19:40.908Z,840.00
2019-05-29T10:20:40.921Z,868.00
2019-05-29T10:21:41.511Z,924.00
2019-05-29T10:22:40.848Z,940.00
2019-05-29T10:23:40.935Z,920.00
2019-05-29T10:24:40.835Z,896.00
2019-05-29T10:25:40.852Z,884.00
2019-05-29T10:26:40.843Z,864.00
2019-05-29T10:27:40.794Z,852.00
2019-05-29T10:28:57.788Z,856.00
2019-05-29T10:29:42.469Z,820.00
2019-05-29T10:30:42.254Z,788.00
2019-05-29T10:31:42.137Z,828.00
2019-05-29T10:32:42.393Z,804.00
2019-05-29T10:33:42.224Z,816.00
2019-05-29T10:34:42.154Z,780.00
2019-05-29T10:35:40.729Z,828.00
2019-05-29T10:36:40.714Z,820.00
2019-05-29T10:37:40.718Z,836.00
2019-05-29T10:38:40.695Z,788.00
2019-05-29T10:39:40.662Z,800.00
2019-05-29T10:40:40.773Z,396.00
2019-05-29T10:41:40.652Z,400.00
2019-05-29T10:42:40.660Z,516.00
2019-05-29T10:43:40.675Z,796.00
2019-05-29T10:44:40.605Z,812.00
2019-05-29T10:45:40.673Z,776.00
2019-05-29T10:46:40.586Z,784.00
2019-05-29T10:47:40.593Z,784.00
2019-05-29T10:48:41.310Z,792.00
2019-05-29T10:49:40.568Z,868.00
2019-05-29T10:50:40.538Z,876.00
2019-05-29T10:51:58.023Z,868.00
2019-05-29T10:52:41.537Z,564.00
2019-05-29T10:53:40.525Z,480.00
2019-05-29T10:54:40.537Z,536.00
2019-05-29T10:55:40.534Z,448.00
2019-05-29T10:56:40.556Z,768.00
2019-05-29T10:57:40.481Z,444.00
2019-05-29T10:58:49.572Z,472.00
2019-05-29T10:59:40.472Z,416.00
2019-05-29T11:00:40.465Z,524.00
2019-05-29T11:01:40.440Z,740.00
2019-05-29T11:02:40.449Z,788.00
2019-05-29T11:03:40.409Z,772.00
2019-05-29T11:04:40.395Z,760.00
2019-05-29T11:05:40.391Z,740.00
2019-05-29T11:06:41.368Z,736.00
2019-05-29T11:07:40.409Z,688.00
2019-05-29T11:08:40.348Z,768.00
2019-05-29T11:09:44.308Z,804.00
2019-05-29T11:10:40.333Z,808.00
2019-05-29T11:11:40.345Z,832.00
2019-05-29T11:12:40.335Z,836.00
2019-05-29T11:13:40.309Z,840.00
2019-05-29T11:14:40.286Z,868.00
2019-05-29T11:15:40.265Z,872.00
2019-05-29T11:16:40.269Z,856.00
2019-05-29T11:17:40.268Z,856.00
2019-05-29T11:18:40.251Z,864.00
2019-05-29T11:19:40.221Z,880.00
2019-05-29T11:20:40.226Z,900.00
2019-05-29T11:21:40.263Z,524.00
2019-05-29T11:22:40.211Z,440.00
2019-05-29T11:23:40.178Z,456.00
2019-05-29T11:24:40.186Z,840.00
2019-05-29T11:25:40.156Z,484.00
2019-05-29T11:26:40.162Z,500.00
2019-05-29T11:27:40.199Z,460.00
2019-05-29T11:28:40.139Z,504.00
2019-05-29T11:29:40.158Z,512.00
2019-05-29T11:30:40.117Z,444.00
2019-05-29T11:31:40.095Z,392.00
2019-05-29T11:32:40.092Z,364.00
2019-05-29T11:33:40.108Z,452.00
2019-05-29T11:34:40.197Z,776.00
2019-05-29T11:35:54.816Z,768.00
2019-05-29T11:36:40.056Z,752.00
2019-05-29T11:37:40.031Z,748.00
2019-05-29T11:38:40.015Z,760.00
2019-05-29T11:39:40.022Z,772.00
2019-05-29T11:40:40.154Z,788.00
2019-05-29T11:41:39.990Z,832.00
2019-05-29T11:42:39.964Z,856.00
2019-05-29T11:43:39.998Z,852.00
2019-05-29T11:44:39.950Z,828.00
2019-05-29T11:45:39.970Z,800.00
2019-05-29T11:46:39.967Z,804.00
2019-05-29T11:47:39.928Z,628.00
2019-05-29T11:48:39.956Z,788.00
2019-05-29T11:49:39.887Z,352.00
2019-05-29T11:50:39.887Z,344.00
2019-05-29T11:51:44.125Z,360.00
2019-05-29T11:52:43.108Z,660.00
2019-05-29T11:53:39.853Z,784.00
2019-05-29T11:54:39.860Z,784.00
2019-05-29T11:55:39.823Z,796.00
2019-05-29T11:56:39.832Z,796.00
2019-05-29T11:57:40.288Z,808.00
2019-05-29T11:58:39.791Z,808.00
2019-05-29T11:59:39.793Z,824.00
2019-05-29T12:00:39.802Z,836.00
2019-05-29T12:01:50.060Z,840.00
2019-05-29T12:02:39.799Z,816.00
2019-05-29T12:04:05.180Z,816.00
2019-05-29T12:04:40.764Z,704.00
2019-05-29T12:05:39.728Z,500.00
2019-05-29T12:06:39.700Z,812.00
2019-05-29T12:07:39.707Z,440.00
2019-05-29T12:08:39.756Z,464.00
2019-05-29T12:09:39.677Z,436.00
2019-05-29T12:10:39.679Z,400.00
2019-05-29T12:11:39.667Z,420.00
2019-05-29T12:12:39.669Z,468.00
2019-05-29T12:13:39.647Z,580.00
2019-05-29T12:14:58.881Z,560.00
2019-05-29T12:15:39.607Z,848.00
2019-05-29T12:16:39.603Z,464.00
2019-05-29T12:17:40.136Z,432.00
2019-05-29T12:18:39.574Z,412.00
2019-05-29T12:19:39.591Z,764.00
2019-05-29T12:20:39.570Z,736.00
2019-05-29T12:21:42.496Z,500.00
2019-05-29T12:22:39.545Z,412.00
2019-05-29T12:23:39.598Z,428.00
2019-05-29T12:24:39.520Z,472.00
2019-05-29T12:25:39.566Z,804.00
2019-05-29T12:26:39.524Z,624.00
2019-05-29T12:27:39.483Z,788.00
2019-05-29T12:28:39.573Z,580.00
2019-05-29T12:29:39.489Z,392.00
2019-05-29T12:30:39.451Z,364.00
2019-05-29T12:31:39.454Z,352.00
2019-05-29T12:32:39.451Z,348.00
2019-05-29T12:33:39.405Z,424.00
2019-05-29T12:34:52.740Z,564.00
2019-05-29T12:35:40.401Z,416.00
2019-05-29T12:36:39.435Z,544.00
2019-05-29T12:37:39.379Z,756.00
2019-05-29T12:38:39.350Z,428.00
2019-05-29T12:39:39.476Z,392.00
2019-05-29T12:40:39.350Z,368.00
2019-05-29T12:41:39.462Z,352.00
2019-05-29T12:42:40.620Z,340.00
2019-05-29T12:43:40.308Z,312.00